createdAt,value
2023-05-18T00:00:11.157Z,100.00
2023-05-18T00:02:59.373Z,100.00
2023-05-18T00:05:27.851Z,100.00
2023-05-18T00:07:57.012Z,100.00
2023-05-18T00:10:25.038Z,100.00
2023-05-18T00:12:53.236Z,100.00
2023-05-18T00:15:22.330Z,100.00
2023-05-18T00:17:50.779Z,100.00
2023-05-18T00:20:22.299Z,100.00
2023-05-18T00:22:50.834Z,100.00
2023-05-18T00:25:19.011Z,100.00
2023-05-18T00:27:49.967Z,100.00
2023-05-18T00:30:20.033Z,100.00
2023-05-18T00:32:48.104Z,100.00
2023-05-18T00:35:16.485Z,100.00
2023-05-18T00:37:44.614Z,100.00
2023-05-18T00:40:12.923Z,100.00
2023-05-18T00:42:40.957Z,100.00
2023-05-18T00:45:11.308Z,100.00
2023-05-18T00:47:39.995Z,100.00
2023-05-18T00:50:08.250Z,100.00
2023-05-18T00:52:36.676Z,100.00
2023-05-18T00:55:06.252Z,100.00
2023-05-18T00:57:34.383Z,100.00
2023-05-18T01:00:07.340Z,100.00
2023-05-18T01:02:37.195Z,100.00
2023-05-18T01:05:06.058Z,100.00
2023-05-18T01:07:34.415Z,100.00
2023-05-18T01:10:02.552Z,100.00
2023-05-18T01:12:37.397Z,100.00
2023-05-18T01:15:10.353Z,100.00
2023-05-18T01:18:00.982Z,100.00
2023-05-18T01:20:37.857Z,100.00
2023-05-18T01:23:29.884Z,100.00
2023-05-18T01:25:58.044Z,100.00
2023-05-18T01:28:33.310Z,100.00
2023-05-18T01:31:01.658Z,100.00
2023-05-18T01:33:29.661Z,100.00
2023-05-18T01:35:57.722Z,100.00
2023-05-18T01:38:28.387Z,100.00
2023-05-18T01:41:18.771Z,100.00
2023-05-18T01:44:09.787Z,100.00
2023-05-18T01:46:56.866Z,100.00
2023-05-18T01:49:46.368Z,100.00
2023-05-18T01:52:27.086Z,100.00
2023-05-18T01:55:00.501Z,100.00
2023-05-18T01:57:31.373Z,100.00
2023-05-18T02:00:07.784Z,100.00
2023-05-18T02:02:44.733Z,100.00
2023-05-18T02:05:14.045Z,100.00
2023-05-18T02:07:44.192Z,100.00
2023-05-18T02:10:12.736Z,100.00
2023-05-18T02:12:40.844Z,100.00
2023-05-18T02:15:10.671Z,100.00
2023-05-18T02:17:39.114Z,100.00
2023-05-18T02:20:08.206Z,100.00
2023-05-18T02:22:37.171Z,100.00
2023-05-18T02:25:05.810Z,100.00
2023-05-18T02:27:36.070Z,100.00
2023-05-18T02:30:05.465Z,100.00
2023-05-18T02:32:38.765Z,100.00
2023-05-18T02:35:09.425Z,100.00
2023-05-18T02:37:40.188Z,100.00
2023-05-18T02:40:13.580Z,100.00
2023-05-18T02:42:42.456Z,100.00
2023-05-18T02:45:12.145Z,100.00
2023-05-18T02:47:41.195Z,100.00
2023-05-18T02:50:09.830Z,100.00
2023-05-18T02:52:38.747Z,100.00
2023-05-18T02:55:07.281Z,100.00
2023-05-18T02:57:57.448Z,100.00
2023-05-18T03:00:34.564Z,100.00
2023-05-18T03:03:02.938Z,100.00
2023-05-18T03:05:31.391Z,100.00
2023-05-18T03:07:59.574Z,100.00
2023-05-18T03:10:27.800Z,100.00
2023-05-18T03:12:55.745Z,100.00
2023-05-18T03:15:23.745Z,100.00
2023-05-18T03:17:51.956Z,100.00
2023-05-18T03:20:21.831Z,100.00
2023-05-18T03:22:49.877Z,100.00
2023-05-18T03:25:18.362Z,100.00
2023-05-18T03:27:46.857Z,100.00
2023-05-18T03:30:15.096Z,100.00
2023-05-18T03:32:43.402Z,100.00
2023-05-18T03:35:11.639Z,100.00
2023-05-18T03:37:39.985Z,100.00
2023-05-18T03:40:11.226Z,100.00
2023-05-18T03:42:41.114Z,100.00
2023-05-18T03:45:11.222Z,100.00
2023-05-18T03:47:41.231Z,100.00
2023-05-18T03:50:10.288Z,100.00
2023-05-18T03:52:39.414Z,100.00
2023-05-18T03:55:08.344Z,100.00
2023-05-18T03:57:36.553Z,100.00
2023-05-18T04:00:09.287Z,100.00
2023-05-18T04:02:45.595Z,100.00
2023-05-18T04:05:14.509Z,100.00
2023-05-18T04:07:46.758Z,100.00
2023-05-18T04:10:15.260Z,100.00
2023-05-18T04:12:44.300Z,100.00
2023-05-18T04:15:14.679Z,100.00
2023-05-18T04:17:45.816Z,100.00
2023-05-18T04:20:14.887Z,100.00
2023-05-18T04:22:46.854Z,100.00
2023-05-18T04:25:16.504Z,100.00
2023-05-18T04:27:49.890Z,100.00
2023-05-18T04:30:22.661Z,100.00
2023-05-18T04:32:52.221Z,100.00
2023-05-18T04:35:20.600Z,100.00
2023-05-18T04:37:48.773Z,100.00
2023-05-18T04:40:19.530Z,100.00
2023-05-18T04:42:51.406Z,100.00
2023-05-18T04:45:29.311Z,100.00
2023-05-18T04:47:58.782Z,100.00
2023-05-18T04:50:28.148Z,100.00
2023-05-18T04:52:58.325Z,100.00
2023-05-18T04:55:29.014Z,100.00
2023-05-18T04:58:10.588Z,100.00
2023-05-18T05:00:38.768Z,100.00
2023-05-18T05:03:06.976Z,100.00
2023-05-18T05:05:35.695Z,100.00
2023-05-18T05:08:06.660Z,100.00
2023-05-18T05:10:36.201Z,100.00
2023-05-18T05:13:04.871Z,100.00
2023-05-18T05:15:34.250Z,100.00
2023-05-18T05:18:02.575Z,100.00
2023-05-18T05:20:31.434Z,100.00
2023-05-18T05:23:00.673Z,100.00
2023-05-18T05:25:29.159Z,100.00
2023-05-18T05:27:57.420Z,100.00
2023-05-18T05:30:25.817Z,100.00
2023-05-18T05:32:54.268Z,100.00
2023-05-18T05:35:24.977Z,100.00
2023-05-18T05:37:53.452Z,100.00
2023-05-18T05:40:22.154Z,100.00
2023-05-18T05:42:51.203Z,100.00
2023-05-18T05:45:19.391Z,100.00
2023-05-18T05:47:50.823Z,100.00
2023-05-18T05:50:21.241Z,100.00
2023-05-18T05:52:50.961Z,100.00
2023-05-18T05:55:20.212Z,100.00
2023-05-18T05:57:48.771Z,100.00
2023-05-18T06:00:17.665Z,100.00
2023-05-18T06:02:53.274Z,100.00
2023-05-18T06:05:39.658Z,100.00
2023-05-18T06:08:10.449Z,100.00
2023-05-18T06:10:42.078Z,100.00
2023-05-18T06:13:10.971Z,100.00
2023-05-18T06:16:08.326Z,100.00
2023-05-18T06:18:36.997Z,100.00
2023-05-18T06:21:06.716Z,100.00
2023-05-18T06:23:34.968Z,100.00
2023-05-18T06:26:03.408Z,100.00
2023-05-18T06:28:48.428Z,100.00
2023-05-18T06:31:36.778Z,100.00
2023-05-18T06:34:20.754Z,100.00
2023-05-18T06:36:51.482Z,100.00
2023-05-18T06:39:19.772Z,100.00
2023-05-18T06:41:48.078Z,100.00
2023-05-18T06:44:23.181Z,100.00
2023-05-18T06:47:11.868Z,100.00
2023-05-18T06:49:40.100Z,100.00
2023-05-18T06:52:12.241Z,100.00
2023-05-18T06:54:49.763Z,100.00
2023-05-18T06:57:19.568Z,100.00
2023-05-18T06:59:55.537Z,100.00
2023-05-18T07:02:24.125Z,100.00
2023-05-18T07:04:53.596Z,100.00
2023-05-18T07:07:23.122Z,100.00
2023-05-18T07:09:54.997Z,100.00
2023-05-18T07:12:23.568Z,100.00
2023-05-18T07:14:52.065Z,100.00
2023-05-18T07:17:20.424Z,100.00
2023-05-18T07:19:48.883Z,100.00
2023-05-18T07:22:18.130Z,100.00
2023-05-18T07:24:47.854Z,100.00
2023-05-18T07:27:16.039Z,100.00
2023-05-18T07:29:44.155Z,100.00
2023-05-18T07:32:13.360Z,100.00
2023-05-18T07:34:43.691Z,100.00
2023-05-18T07:37:13.036Z,100.00
2023-05-18T07:39:41.681Z,100.00
2023-05-18T07:42:11.556Z,100.00
2023-05-18T07:44:39.719Z,100.00
2023-05-18T07:47:08.511Z,100.00
2023-05-18T07:49:39.135Z,100.00
2023-05-18T07:52:09.159Z,100.00
2023-05-18T07:54:37.333Z,100.00
2023-05-18T07:57:05.765Z,100.00
2023-05-18T07:59:36.387Z,100.00
2023-05-18T08:02:05.849Z,100.00
2023-05-18T08:04:34.383Z,100.00
2023-05-18T08:07:03.347Z,100.00
2023-05-18T08:09:31.489Z,100.00
2023-05-18T08:12:00.056Z,100.00
2023-05-18T08:14:29.309Z,100.00
2023-05-18T08:16:59.994Z,100.00
2023-05-18T08:19:29.556Z,100.00
2023-05-18T08:21:59.119Z,100.00
2023-05-18T08:24:27.461Z,100.00
2023-05-18T08:27:01.045Z,100.00
2023-05-18T08:29:29.571Z,100.00
2023-05-18T08:31:57.808Z,100.00
2023-05-18T08:34:25.954Z,100.00
2023-05-18T08:36:54.423Z,100.00
2023-05-18T08:39:23.270Z,100.00
2023-05-18T08:42:00.533Z,100.00
2023-05-18T08:44:49.150Z,100.00
2023-05-18T08:47:17.705Z,100.00
2023-05-18T08:49:52.126Z,100.00
2023-05-18T08:52:27.768Z,100.00
2023-05-18T08:55:00.298Z,100.00
2023-05-18T08:57:31.344Z,100.00
2023-05-18T09:00:06.004Z,100.00
2023-05-18T09:02:37.004Z,100.00
2023-05-18T09:05:08.125Z,100.00
2023-05-18T09:07:39.599Z,100.00
2023-05-18T09:10:10.677Z,100.00
2023-05-18T09:12:41.724Z,100.00
2023-05-18T09:15:17.039Z,100.00
2023-05-18T09:17:46.519Z,100.00
2023-05-18T09:20:17.045Z,100.00
2023-05-18T09:22:45.985Z,100.00
2023-05-18T09:25:17.153Z,100.00
2023-05-18T09:27:46.324Z,100.00
2023-05-18T09:30:14.659Z,100.00
2023-05-18T09:32:43.652Z,100.00
2023-05-18T09:35:15.276Z,100.00
2023-05-18T09:37:45.725Z,100.00
2023-05-18T09:40:14.317Z,100.00
2023-05-18T09:42:45.087Z,100.00
2023-05-18T09:45:19.109Z,100.00
2023-05-18T09:47:50.068Z,100.00
2023-05-18T09:50:24.761Z,100.00
2023-05-18T09:52:54.921Z,100.00
2023-05-18T09:55:23.229Z,100.00
2023-05-18T09:57:53.184Z,100.00
2023-05-18T10:00:24.206Z,100.00
2023-05-18T10:02:54.041Z,100.00
2023-05-18T10:05:35.722Z,100.00
2023-05-18T10:08:05.772Z,100.00
2023-05-18T10:10:45.849Z,100.00
2023-05-18T10:13:20.251Z,100.00
2023-05-18T10:15:51.142Z,100.00
2023-05-18T10:18:29.532Z,100.00
2023-05-18T10:21:00.553Z,100.00
2023-05-18T10:23:37.079Z,100.00
2023-05-18T10:26:07.498Z,100.00
2023-05-18T10:28:43.251Z,100.00
2023-05-18T10:31:12.642Z,100.00
2023-05-18T10:33:45.004Z,100.00
2023-05-18T10:36:15.859Z,100.00
2023-05-18T10:38:49.233Z,100.00
2023-05-18T10:41:21.913Z,100.00
2023-05-18T10:43:52.456Z,100.00
2023-05-18T10:46:27.446Z,100.00
2023-05-18T10:48:58.816Z,100.00
2023-05-18T10:51:31.936Z,100.00
2023-05-18T10:54:13.438Z,98.29
2023-05-18T10:56:45.480Z,96.85
2023-05-18T10:59:15.519Z,94.01
2023-05-18T11:01:46.215Z,95.06
2023-05-18T11:04:15.037Z,93.41
2023-05-18T11:06:43.340Z,89.17
2023-05-18T11:09:25.019Z,91.76
2023-05-18T11:12:03.560Z,89.21
2023-05-18T11:14:37.069Z,93.60
2023-05-18T11:17:28.583Z,94.56
2023-05-18T11:20:10.272Z,88.15
2023-05-18T11:22:41.915Z,95.04
2023-05-18T11:25:24.713Z,95.05
2023-05-18T11:27:57.706Z,96.38
2023-05-18T11:30:48.583Z,93.26
2023-05-18T11:33:30.988Z,93.49
2023-05-18T11:36:03.304Z,93.96
2023-05-18T11:39:10.352Z,95.47
2023-05-18T11:41:45.156Z,90.44
2023-05-18T11:44:18.762Z,92.68
2023-05-18T11:46:57.416Z,89.17
2023-05-18T11:49:31.626Z,93.39
2023-05-18T11:52:19.228Z,91.09
2023-05-18T11:54:54.347Z,83.70
2023-05-18T11:57:27.368Z,78.58
2023-05-18T11:59:58.448Z,84.14
2023-05-18T12:02:36.487Z,84.94
2023-05-18T12:05:11.156Z,77.28
2023-05-18T12:07:46.480Z,85.09
2023-05-18T12:10:22.187Z,82.27
2023-05-18T12:12:58.085Z,79.12
2023-05-18T12:15:38.033Z,83.43
2023-05-18T12:18:12.043Z,82.91
2023-05-18T12:20:41.137Z,84.21
2023-05-18T12:23:17.211Z,78.91
2023-05-18T12:25:49.104Z,80.90
2023-05-18T12:28:20.938Z,82.37
2023-05-18T12:30:49.357Z,80.72
2023-05-18T12:33:17.806Z,81.82
2023-05-18T12:35:48.936Z,84.11
2023-05-18T12:38:32.761Z,86.00
2023-05-18T12:41:06.664Z,90.26
2023-05-18T12:43:36.170Z,93.60
2023-05-18T12:46:06.078Z,97.31
2023-05-18T12:48:50.158Z,97.05
2023-05-18T12:51:19.705Z,99.11
2023-05-18T12:53:50.822Z,100.00
2023-05-18T12:56:21.184Z,100.00
2023-05-18T12:59:03.344Z,100.00
2023-05-18T13:01:42.081Z,100.00
2023-05-18T13:04:14.763Z,100.00
2023-05-18T13:06:43.808Z,100.00
2023-05-18T13:09:16.441Z,100.00
2023-05-18T13:12:03.680Z,100.00
2023-05-18T13:14:39.860Z,100.00
2023-05-18T13:17:08.825Z,100.00
2023-05-18T13:19:37.572Z,100.00
2023-05-18T13:22:06.010Z,100.00
2023-05-18T13:24:35.818Z,99.45
2023-05-18T13:27:04.184Z,97.24
2023-05-18T13:29:35.043Z,98.33
2023-05-18T13:32:04.909Z,92.98
2023-05-18T13:34:36.142Z,89.08
2023-05-18T13:37:05.056Z,87.14
2023-05-18T13:39:34.755Z,83.86
2023-05-18T13:42:03.343Z,82.95
2023-05-18T13:44:31.860Z,80.96
2023-05-18T13:47:00.818Z,81.70
2023-05-18T13:49:29.595Z,80.70
2023-05-18T13:52:00.292Z,81.50
2023-05-18T13:54:33.820Z,80.98
2023-05-18T13:57:02.673Z,79.82
2023-05-18T13:59:34.732Z,80.40
2023-05-18T14:02:03.773Z,85.45
2023-05-18T14:04:32.359Z,86.40
2023-05-18T14:07:01.044Z,84.58
2023-05-18T14:09:30.645Z,87.42
2023-05-18T14:12:00.460Z,89.64
2023-05-18T14:14:28.944Z,95.68
2023-05-18T14:16:58.038Z,94.60
2023-05-18T14:19:27.149Z,92.08
2023-05-18T14:21:55.848Z,93.62
2023-05-18T14:24:25.687Z,99.00
2023-05-18T14:26:54.734Z,100.00
2023-05-18T14:29:26.695Z,100.00
2023-05-18T14:31:55.337Z,100.00
2023-05-18T14:34:24.069Z,100.00
2023-05-18T14:36:52.968Z,100.00
2023-05-18T14:39:22.564Z,100.00
2023-05-18T14:41:50.982Z,100.00
2023-05-18T14:44:19.686Z,100.00
2023-05-18T14:46:48.214Z,100.00
2023-05-18T14:49:16.662Z,100.00
2023-05-18T14:51:45.145Z,100.00
2023-05-18T14:54:14.394Z,100.00
2023-05-18T14:56:42.720Z,100.00
2023-05-18T14:59:12.570Z,100.00
2023-05-18T15:01:42.163Z,100.00
2023-05-18T15:04:11.793Z,100.00
2023-05-18T15:06:50.538Z,100.00
2023-05-18T15:09:20.220Z,100.00
2023-05-18T15:11:49.410Z,100.00
2023-05-18T15:14:17.914Z,100.00
2023-05-18T15:16:46.955Z,100.00
2023-05-18T15:19:15.815Z,100.00
2023-05-18T15:21:45.438Z,100.00
2023-05-18T15:24:13.979Z,100.00
2023-05-18T15:26:42.598Z,100.00
2023-05-18T15:29:10.920Z,100.00
2023-05-18T15:31:40.147Z,100.00
2023-05-18T15:34:08.360Z,100.00
2023-05-18T15:36:38.044Z,100.00
2023-05-18T15:39:06.560Z,100.00
2023-05-18T15:41:37.380Z,100.00
2023-05-18T15:44:05.932Z,100.00
2023-05-18T15:46:36.208Z,100.00
2023-05-18T15:49:04.688Z,100.00
2023-05-18T15:51:32.815Z,100.00
2023-05-18T15:54:01.750Z,100.00
2023-05-18T15:56:31.155Z,100.00
2023-05-18T15:58:59.314Z,100.00
2023-05-18T16:01:27.870Z,100.00
2023-05-18T16:03:56.280Z,100.00
2023-05-18T16:06:25.809Z,100.00
2023-05-18T16:08:56.242Z,100.00
2023-05-18T16:11:26.234Z,100.00
2023-05-18T16:14:04.544Z,100.00
2023-05-18T16:16:32.771Z,100.00
2023-05-18T16:19:02.503Z,100.00
2023-05-18T16:21:32.169Z,100.00
2023-05-18T16:24:00.253Z,100.00
2023-05-18T16:26:29.230Z,100.00
2023-05-18T16:28:58.601Z,100.00
2023-05-18T16:31:26.844Z,100.00
2023-05-18T16:33:55.139Z,100.00
2023-05-18T16:36:26.645Z,100.00
2023-05-18T16:38:54.914Z,100.00
2023-05-18T16:41:23.000Z,100.00
2023-05-18T16:43:51.251Z,100.00
2023-05-18T16:46:20.262Z,100.00
2023-05-18T16:48:48.459Z,100.00
2023-05-18T16:51:16.830Z,100.00
2023-05-18T16:53:45.142Z,100.00
2023-05-18T16:56:13.358Z,100.00
2023-05-18T16:58:41.463Z,100.00
2023-05-18T17:01:19.264Z,100.00
2023-05-18T17:03:54.875Z,100.00
2023-05-18T17:06:23.076Z,100.00
2023-05-18T17:08:57.529Z,100.00
2023-05-18T17:11:27.832Z,100.00
2023-05-18T17:13:58.126Z,100.00
2023-05-18T17:16:27.352Z,100.00
2023-05-18T17:18:58.126Z,100.00
2023-05-18T17:21:28.584Z,100.00
2023-05-18T17:23:56.868Z,100.00
2023-05-18T17:26:25.956Z,100.00
2023-05-18T17:28:56.496Z,100.00
2023-05-18T17:31:24.607Z,100.00
2023-05-18T17:33:54.801Z,100.00
2023-05-18T17:36:24.571Z,100.00
2023-05-18T17:38:54.389Z,100.00
2023-05-18T17:41:22.654Z,100.00
2023-05-18T17:43:52.004Z,100.00
2023-05-18T17:46:20.276Z,100.00
2023-05-18T17:48:49.034Z,100.00
2023-05-18T17:51:17.423Z,100.00
2023-05-18T17:53:46.347Z,100.00
2023-05-18T17:56:14.487Z,100.00
2023-05-18T17:58:42.852Z,100.00
2023-05-18T18:01:13.761Z,100.00
2023-05-18T18:03:41.995Z,100.00
2023-05-18T18:06:10.217Z,100.00
2023-05-18T18:08:38.350Z,100.00
2023-05-18T18:11:09.035Z,100.00
2023-05-18T18:13:37.763Z,100.00
2023-05-18T18:16:06.477Z,100.00
2023-05-18T18:18:39.215Z,100.00
2023-05-18T18:21:08.108Z,100.00
2023-05-18T18:23:37.386Z,100.00
2023-05-18T18:26:06.572Z,100.00
2023-05-18T18:28:34.980Z,100.00
2023-05-18T18:31:03.500Z,100.00
2023-05-18T18:33:33.109Z,100.00
2023-05-18T18:36:03.894Z,100.00
2023-05-18T18:38:34.064Z,100.00
2023-05-18T18:41:04.509Z,100.00
2023-05-18T18:43:35.136Z,100.00
2023-05-18T18:46:03.381Z,100.00
2023-05-18T18:48:31.612Z,100.00
2023-05-18T18:51:02.747Z,100.00
2023-05-18T18:53:30.830Z,100.00
2023-05-18T18:55:59.999Z,100.00
2023-05-18T18:58:28.364Z,100.00
2023-05-18T19:00:57.731Z,100.00
2023-05-18T19:03:26.355Z,100.00
2023-05-18T19:05:54.421Z,100.00
2023-05-18T19:08:22.474Z,100.00
2023-05-18T19:10:50.857Z,100.00
2023-05-18T19:13:18.972Z,100.00
2023-05-18T19:15:49.442Z,100.00
2023-05-18T19:18:17.902Z,100.00
2023-05-18T19:20:46.016Z,100.00
2023-05-18T19:23:14.036Z,100.00
2023-05-18T19:25:42.613Z,100.00
2023-05-18T19:28:10.732Z,100.00
2023-05-18T19:30:38.957Z,100.00
2023-05-18T19:33:07.729Z,100.00
2023-05-18T19:35:36.219Z,100.00
2023-05-18T19:38:04.206Z,100.00
2023-05-18T19:40:32.361Z,100.00
2023-05-18T19:43:01.720Z,100.00
2023-05-18T19:45:30.287Z,100.00
2023-05-18T19:47:59.938Z,100.00
2023-05-18T19:50:28.526Z,100.00
2023-05-18T19:52:56.981Z,100.00
2023-05-18T19:55:25.635Z,100.00
2023-05-18T19:57:54.199Z,100.00
2023-05-18T20:00:22.431Z,100.00
2023-05-18T20:02:51.020Z,100.00
2023-05-18T20:05:20.770Z,100.00
2023-05-18T20:07:49.360Z,100.00
2023-05-18T20:10:18.669Z,100.00
2023-05-18T20:12:46.903Z,100.00
2023-05-18T20:15:15.071Z,100.00
2023-05-18T20:17:45.576Z,100.00
2023-05-18T20:20:13.725Z,100.00
2023-05-18T20:22:42.424Z,100.00
2023-05-18T20:25:12.158Z,100.00
2023-05-18T20:27:40.415Z,100.00
2023-05-18T20:30:10.442Z,100.00
2023-05-18T20:32:38.675Z,100.00
2023-05-18T20:35:07.194Z,100.00
2023-05-18T20:37:35.297Z,100.00
2023-05-18T20:40:09.071Z,100.00
2023-05-18T20:42:40.935Z,100.00
2023-05-18T20:45:09.931Z,100.00
2023-05-18T20:47:38.951Z,100.00
2023-05-18T20:50:08.437Z,100.00
2023-05-18T20:52:36.678Z,100.00
2023-05-18T20:55:05.066Z,100.00
2023-05-18T20:57:35.184Z,100.00
2023-05-18T21:00:04.424Z,100.00
2023-05-18T21:02:33.753Z,100.00
2023-05-18T21:05:02.768Z,100.00
2023-05-18T21:07:33.261Z,100.00
2023-05-18T21:10:02.541Z,100.00
2023-05-18T21:12:30.816Z,100.00
2023-05-18T21:14:58.947Z,100.00
2023-05-18T21:17:27.024Z,100.00
2023-05-18T21:19:55.747Z,100.00
2023-05-18T21:22:23.885Z,100.00
2023-05-18T21:24:52.087Z,100.00
2023-05-18T21:27:20.147Z,100.00
2023-05-18T21:29:48.656Z,100.00
2023-05-18T21:32:17.354Z,100.00
2023-05-18T21:34:45.787Z,100.00
2023-05-18T21:37:15.461Z,100.00
2023-05-18T21:39:46.831Z,100.00
2023-05-18T21:42:16.182Z,100.00
2023-05-18T21:44:44.153Z,100.00
2023-05-18T21:47:12.261Z,100.00
2023-05-18T21:49:40.466Z,100.00
2023-05-18T21:52:08.373Z,100.00
2023-05-18T21:54:36.897Z,100.00
2023-05-18T21:57:05.272Z,100.00
2023-05-18T21:59:33.346Z,100.00
2023-05-18T22:02:02.158Z,100.00
2023-05-18T22:04:30.572Z,100.00
2023-05-18T22:06:58.981Z,100.00
2023-05-18T22:09:27.000Z,100.00
2023-05-18T22:11:56.249Z,100.00
2023-05-18T22:14:24.306Z,100.00
2023-05-18T22:16:52.370Z,100.00
2023-05-18T22:19:21.075Z,100.00
2023-05-18T22:21:53.508Z,100.00
2023-05-18T22:24:21.626Z,100.00
2023-05-18T22:26:49.815Z,100.00
2023-05-18T22:29:17.842Z,100.00
2023-05-18T22:31:46.199Z,100.00
2023-05-18T22:34:14.259Z,100.00
2023-05-18T22:36:42.278Z,100.00
2023-05-18T22:39:11.071Z,100.00
2023-05-18T22:41:40.062Z,100.00
2023-05-18T22:44:08.056Z,100.00
2023-05-18T22:46:36.376Z,100.00
2023-05-18T22:49:06.630Z,100.00
2023-05-18T22:51:35.777Z,100.00
2023-05-18T22:54:03.839Z,100.00
2023-05-18T22:56:31.924Z,100.00
2023-05-18T22:59:00.106Z,100.00
2023-05-18T23:01:28.403Z,100.00
2023-05-18T23:03:56.824Z,100.00
2023-05-18T23:06:25.769Z,100.00
2023-05-18T23:08:55.202Z,100.00
2023-05-18T23:11:23.305Z,100.00
2023-05-18T23:13:51.414Z,100.00
2023-05-18T23:16:20.682Z,100.00
2023-05-18T23:18:50.554Z,100.00
2023-05-18T23:21:18.881Z,100.00
2023-05-18T23:23:47.348Z,100.00
2023-05-18T23:26:15.386Z,100.00
2023-05-18T23:28:43.442Z,100.00
2023-05-18T23:31:11.596Z,100.00
2023-05-18T23:33:40.105Z,100.00
2023-05-18T23:36:09.043Z,100.00
2023-05-18T23:38:41.139Z,100.00
2023-05-18T23:41:10.582Z,100.00
2023-05-18T23:43:39.029Z,100.00
2023-05-18T23:46:07.982Z,100.00
2023-05-18T23:48:36.539Z,100.00
2023-05-18T23:51:05.775Z,100.00
2023-05-18T23:53:35.294Z,100.00
2023-05-18T23:56:04.796Z,100.00
2023-05-18T23:58:33.817Z,100.00
